Time,TemperatureF,DewpointF,PressureIn,WindDirection,WindDirectionDegrees,WindSpeedMPH,WindSpeedGustMPH,Humidity,HourlyPrecipIn,Conditions,Clouds,dailyrainin,SoftwareType,DateUTC
2013-03-02 00:14:00,37.3,29.0,29.65,NW,326,1.0,7.0,71,0.00,,,0.00,weatherlink.com 1.10,2013-03-02 05:14:00,
2013-03-02 00:30:00,37.2,29.0,29.64,NNW,329,0.0,3.0,72,0.00,,,0.00,weatherlink.com 1.10,2013-03-02 05:30:00,
2013-03-02 00:45:00,37.1,28.0,29.65,NNW,338,3.0,4.0,71,0.00,,,0.00,weatherlink.com 1.10,2013-03-02 05:45:00,
2013-03-02 01:00:00,37.0,29.0,29.65,NW,317,0.0,4.0,72,0.00,,,0.00,weatherlink.com 1.10,2013-03-02 06:00:00,
2013-03-02 01:15:00,36.9,28.0,29.65,NNW,340,0.0,6.0,71,0.00,,,0.00,weatherlink.com 1.10,2013-03-02 06:15:00,
2013-03-02 01:30:00,36.9,29.0,29.64,NW,319,4.0,6.0,72,0.00,,,0.00,weatherlink.com 1.10,2013-03-02 06:30:00,
2013-03-02 01:45:00,36.8,29.0,29.64,NNW,341,0.0,3.0,72,0.00,,,0.00,weatherlink.com 1.10,2013-03-02 06:45:00,
2013-03-02 02:00:00,36.7,28.0,29.64,West,281,0.0,5.0,72,0.00,,,0.00,weatherlink.com 1.10,2013-03-02 07:00:00,
2013-03-02 02:15:00,36.6,28.0,29.64,West,276,0.0,6.0,72,0.00,,,0.00,weatherlink.com 1.10,2013-03-02 07:15:00,
2013-03-02 02:30:00,36.4,28.0,29.64,NW,320,1.0,5.0,72,0.00,,,0.00,weatherlink.com 1.10,2013-03-02 07:30:00,
2013-03-02 02:45:00,36.2,28.0,29.63,WNW,299,0.0,4.0,72,0.00,,,0.00,weatherlink.com 1.10,2013-03-02 07:45:00,
2013-03-02 03:00:00,36.2,28.0,29.64,NW,304,2.0,6.0,72,0.00,,,0.00,weatherlink.com 1.10,2013-03-02 08:00:00,
2013-03-02 03:15:00,36.1,28.0,29.63,NW,318,5.0,7.0,72,0.00,,,0.00,weatherlink.com 1.10,2013-03-02 08:15:00,
2013-03-02 03:30:00,36.1,28.0,29.63,NNW,345,0.0,7.0,72,0.00,,,0.00,weatherlink.com 1.10,2013-03-02 08:30:00,
2013-03-02 03:45:00,36.0,28.0,29.64,NW,325,0.0,2.0,72,0.00,,,0.00,weatherlink.com 1.10,2013-03-02 08:45:00,
2013-03-02 04:00:00,35.9,28.0,29.64,NW,312,0.0,6.0,73,0.00,,,0.00,weatherlink.com 1.10,2013-03-02 09:00:00,
2013-03-02 04:15:00,35.8,28.0,29.65,NW,321,4.0,7.0,73,0.00,,,0.00,weatherlink.com 1.10,2013-03-02 09:15:00,
2013-03-02 04:30:00,35.6,28.0,29.64,NW,316,1.0,7.0,73,0.00,,,0.00,weatherlink.com 1.10,2013-03-02 09:30:00,
2013-03-02 04:45:00,35.3,27.0,29.64,NW,320,0.0,3.0,73,0.00,,,0.00,weatherlink.com 1.10,2013-03-02 09:45:00,
2013-03-02 05:00:00,35.2,28.0,29.65,WNW,283,0.0,3.0,74,0.00,,,0.00,weatherlink.com 1.10,2013-03-02 10:00:00,
2013-03-02 05:15:00,35.0,28.0,29.65,NW,317,0.0,3.0,74,0.00,,,0.00,weatherlink.com 1.10,2013-03-02 10:15:00,
2013-03-02 05:30:00,34.9,28.0,29.64,WSW,246,0.0,4.0,75,0.00,,,0.00,weatherlink.com 1.10,2013-03-02 10:30:00,
2013-03-02 05:45:00,34.7,28.0,29.64,NW,307,1.0,6.0,75,0.00,,,0.00,weatherlink.com 1.10,2013-03-02 10:45:00,
2013-03-02 06:00:00,34.7,28.0,29.64,NW,319,0.0,6.0,75,0.00,,,0.00,weatherlink.com 1.10,2013-03-02 11:00:00,
2013-03-02 06:15:00,34.6,27.0,29.64,WNW,300,0.0,2.0,75,0.00,,,0.00,weatherlink.com 1.10,2013-03-02 11:15:00,
2013-03-02 06:30:00,34.4,27.0,29.65,NNW,336,0.0,4.0,75,0.00,,,0.00,weatherlink.com 1.10,2013-03-02 11:30:00,
2013-03-02 06:45:00,34.4,27.0,29.65,West,264,0.0,4.0,75,0.00,,,0.00,weatherlink.com 1.10,2013-03-02 11:45:00,
2013-03-02 07:00:00,34.6,27.0,29.66,NW,309,0.0,3.0,75,0.00,,,0.00,weatherlink.com 1.10,2013-03-02 12:00:00,
2013-03-02 07:15:00,34.9,28.0,29.66,WSW,255,1.0,4.0,75,0.00,,,0.00,weatherlink.com 1.10,2013-03-02 12:15:00,
2013-03-02 07:30:00,35.3,28.0,29.66,NW,316,0.0,5.0,74,0.00,,,0.00,weatherlink.com 1.10,2013-03-02 12:30:00,
2013-03-02 07:45:00,35.7,27.0,29.66,West,260,0.0,5.0,72,0.00,,,0.00,weatherlink.com 1.10,2013-03-02 12:45:00,
2013-03-02 08:00:00,36.1,28.0,29.66,WSW,245,0.0,4.0,72,0.00,,,0.00,weatherlink.com 1.10,2013-03-02 13:00:00,
2013-03-02 08:15:00,36.9,28.0,29.66,NW,308,0.0,7.0,71,0.00,,,0.00,weatherlink.com 1.10,2013-03-02 13:15:00,
2013-03-02 08:30:00,38.4,29.0,29.66,NNW,328,0.0,5.0,68,0.00,,,0.00,weatherlink.com 1.10,2013-03-02 13:30:00,
2013-03-02 08:45:00,39.9,29.0,29.66,NW,322,0.0,11.0,64,0.00,,,0.00,weatherlink.com 1.10,2013-03-02 13:45:00,
2013-03-02 09:00:00,40.5,29.0,29.65,NNE,13,1.0,8.0,63,0.00,,,0.00,weatherlink.com 1.10,2013-03-02 14:00:00,
2013-03-02 09:15:00,40.5,29.0,29.64,WNW,301,1.0,7.0,63,0.00,,,0.00,weatherlink.com 1.10,2013-03-02 14:15:00,
2013-03-02 09:30:00,41.0,29.0,29.64,NW,308,2.0,10.0,62,0.00,,,0.00,weatherlink.com 1.10,2013-03-02 14:30:00,
2013-03-02 09:46:00,41.1,29.0,29.64,WNW,298,1.0,7.0,62,0.00,,,0.00,weatherlink.com 1.10,2013-03-02 14:46:00,
2013-03-02 10:01:00,41.6,28.0,29.64,NW,319,7.0,7.0,60,0.00,,,0.00,weatherlink.com 1.10,2013-03-02 15:01:00,
2013-03-02 10:16:00,42.1,29.0,29.64,SW,215,4.0,9.0,61,0.00,,,0.00,weatherlink.com 1.10,2013-03-02 15:16:00,
2013-03-02 10:31:00,44.0,31.0,29.63,NNW,345,0.0,5.0,60,0.00,,,0.00,weatherlink.com 1.10,2013-03-02 15:31:00,
2013-03-02 10:46:00,43.8,30.0,29.63,West,279,0.0,5.0,58,0.00,,,0.00,weatherlink.com 1.10,2013-03-02 15:46:00,
2013-03-02 11:01:00,44.1,30.0,29.63,NW,304,0.0,5.0,58,0.00,,,0.00,weatherlink.com 1.10,2013-03-02 16:01:00,
2013-03-02 11:16:00,44.7,30.0,29.63,North,350,0.0,6.0,57,0.00,,,0.00,weatherlink.com 1.10,2013-03-02 16:16:00,
2013-03-02 11:31:00,44.2,30.0,29.63,WNW,298,1.0,6.0,58,0.00,,,0.00,weatherlink.com 1.10,2013-03-02 16:31:00,
2013-03-02 11:46:00,43.3,29.0,29.63,WNW,293,1.0,5.0,57,0.00,,,0.00,weatherlink.com 1.10,2013-03-02 16:46:00,
2013-03-02 12:01:00,44.8,30.0,29.61,SW,226,2.0,5.0,56,0.00,,,0.00,weatherlink.com 1.10,2013-03-02 17:01:00,
2013-03-02 12:16:00,43.7,30.0,29.61,NNW,331,0.0,5.0,58,0.00,,,0.00,weatherlink.com 1.10,2013-03-02 17:16:00,
2013-03-02 12:31:00,43.8,29.0,29.61,NW,315,0.0,3.0,57,0.00,,,0.00,weatherlink.com 1.10,2013-03-02 17:31:00,
2013-03-02 12:46:00,43.7,29.0,29.61,NNW,340,0.0,3.0,57,0.00,,,0.00,weatherlink.com 1.10,2013-03-02 17:46:00,
2013-03-02 13:04:00,43.3,30.0,29.61,North,351,0.0,3.0,59,0.00,,,0.00,weatherlink.com 1.10,2013-03-02 18:04:00,
2013-03-02 13:16:00,42.8,29.0,29.61,NW,323,0.0,4.0,59,0.00,,,0.00,weatherlink.com 1.10,2013-03-02 18:16:00,
2013-03-02 13:31:00,42.1,29.0,29.61,WSW,243,0.0,5.0,59,0.00,,,0.00,weatherlink.com 1.10,2013-03-02 18:31:00,
2013-03-02 13:46:00,41.9,29.0,29.61,WSW,258,0.0,6.0,60,0.00,,,0.00,weatherlink.com 1.10,2013-03-02 18:46:00,
2013-03-02 14:01:00,41.6,28.0,29.61,West,264,2.0,9.0,60,0.00,,,0.00,weatherlink.com 1.10,2013-03-02 19:01:00,
2013-03-02 14:16:00,41.4,29.0,29.61,NW,312,0.0,5.0,61,0.00,,,0.00,weatherlink.com 1.10,2013-03-02 19:16:00,
2013-03-02 14:31:00,41.2,29.0,29.61,West,277,2.0,7.0,61,0.00,,,0.00,weatherlink.com 1.10,2013-03-02 19:31:00,
2013-03-02 14:46:00,41.4,28.0,29.61,WSW,238,0.0,7.0,60,0.00,,,0.00,weatherlink.com 1.10,2013-03-02 19:46:00,
2013-03-02 15:01:00,41.3,28.0,29.61,SW,222,1.0,5.0,60,0.00,,,0.00,weatherlink.com 1.10,2013-03-02 20:01:00,
2013-03-02 15:16:00,41.3,28.0,29.60,NNW,331,0.0,5.0,60,0.00,,,0.00,weatherlink.com 1.10,2013-03-02 20:16:00,
2013-03-02 15:31:00,41.4,28.0,29.60,NW,321,0.0,7.0,60,0.00,,,0.00,weatherlink.com 1.10,2013-03-02 20:31:00,
2013-03-02 15:46:00,40.9,28.0,29.60,West,274,0.0,6.0,61,0.00,,,0.00,weatherlink.com 1.10,2013-03-02 20:46:00,
2013-03-02 16:01:00,40.8,29.0,29.60,WNW,293,0.0,6.0,62,0.00,,,0.00,weatherlink.com 1.10,2013-03-02 21:01:00,
2013-03-02 16:16:00,40.6,28.0,29.60,WSW,252,0.0,5.0,62,0.00,,,0.00,weatherlink.com 1.10,2013-03-02 21:16:00,
2013-03-02 16:31:00,40.6,28.0,29.59,West,277,0.0,7.0,62,0.00,,,0.00,weatherlink.com 1.10,2013-03-02 21:31:00,
2013-03-02 16:46:00,40.6,28.0,29.60,West,260,0.0,6.0,62,0.00,,,0.00,weatherlink.com 1.10,2013-03-02 21:46:00,
2013-03-02 17:01:00,40.5,28.0,29.60,WNW,284,3.0,3.0,62,0.00,,,0.00,weatherlink.com 1.10,2013-03-02 22:01:00,
2013-03-02 17:16:00,40.3,28.0,29.60,NNW,344,0.0,2.0,62,0.00,,,0.00,weatherlink.com 1.10,2013-03-02 22:16:00,
2013-03-02 17:31:00,40.2,28.0,29.61,WSW,238,0.0,5.0,63,0.00,,,0.00,weatherlink.com 1.10,2013-03-02 22:31:00,
2013-03-02 17:46:00,40.0,29.0,29.61,WNW,300,0.0,3.0,64,0.00,,,0.00,weatherlink.com 1.10,2013-03-02 22:46:00,
2013-03-02 18:01:00,39.8,28.0,29.62,WSW,256,1.0,4.0,64,0.00,,,0.00,weatherlink.com 1.10,2013-03-02 23:01:00,
2013-03-02 18:16:00,39.7,29.0,29.62,West,265,2.0,2.0,65,0.00,,,0.00,weatherlink.com 1.10,2013-03-02 23:16:00,
2013-03-02 18:31:00,39.6,29.0,29.63,West,274,0.0,2.0,66,0.00,,,0.00,weatherlink.com 1.10,2013-03-02 23:31:00,
2013-03-02 18:46:00,39.5,29.0,29.63,West,274,0.0,2.0,67,0.00,,,0.00,weatherlink.com 1.10,2013-03-02 23:46:00,
2013-03-02 19:01:00,39.4,29.0,29.63,West,274,0.0,2.0,67,0.00,,,0.00,weatherlink.com 1.10,2013-03-03 00:01:00,
2013-03-02 19:16:00,39.3,29.0,29.63,West,274,0.0,0.0,67,0.00,,,0.00,weatherlink.com 1.10,2013-03-03 00:16:00,
2013-03-02 19:31:00,39.2,29.0,29.63,West,274,0.0,1.0,68,0.00,,,0.00,weatherlink.com 1.10,2013-03-03 00:31:00,
2013-03-02 19:46:00,39.1,30.0,29.63,West,274,0.0,2.0,69,0.00,,,0.00,weatherlink.com 1.10,2013-03-03 00:46:00,
2013-03-02 20:01:00,38.9,30.0,29.63,West,274,2.0,2.0,70,0.00,,,0.00,weatherlink.com 1.10,2013-03-03 01:01:00,
2013-03-02 20:16:00,38.7,30.0,29.63,West,274,0.0,2.0,70,0.00,,,0.00,weatherlink.com 1.10,2013-03-03 01:16:00,
2013-03-02 20:31:00,38.7,30.0,29.63,West,274,0.0,0.0,71,0.00,,,0.00,weatherlink.com 1.10,2013-03-03 01:31:00,
2013-03-02 20:46:00,38.7,30.0,29.63,West,274,1.0,3.0,71,0.00,,,0.00,weatherlink.com 1.10,2013-03-03 01:46:00,
2013-03-02 21:01:00,38.6,30.0,29.63,West,274,0.0,2.0,71,0.00,,,0.00,weatherlink.com 1.10,2013-03-03 02:01:00,
2013-03-02 21:16:00,38.5,30.0,29.63,West,274,0.0,0.0,71,0.00,,,0.00,weatherlink.com 1.10,2013-03-03 02:16:00,
2013-03-02 21:31:00,38.5,30.0,29.63,West,274,0.0,0.0,72,0.00,,,0.00,weatherlink.com 1.10,2013-03-03 02:31:00,
2013-03-02 21:46:00,38.6,30.0,29.62,WNW,298,0.0,2.0,72,0.00,,,0.00,weatherlink.com 1.10,2013-03-03 02:46:00,
2013-03-02 22:01:00,38.6,30.0,29.62,WNW,298,0.0,0.0,72,0.00,,,0.00,weatherlink.com 1.10,2013-03-03 03:01:00,
2013-03-02 22:16:00,38.5,30.0,29.61,WNW,298,0.0,0.0,72,0.00,,,0.00,weatherlink.com 1.10,2013-03-03 03:16:00,
2013-03-02 22:31:00,38.4,30.0,29.61,WNW,298,0.0,1.0,73,0.00,,,0.00,weatherlink.com 1.10,2013-03-03 03:31:00,
2013-03-02 22:46:00,38.3,30.0,29.61,WNW,298,0.0,0.0,73,0.00,,,0.00,weatherlink.com 1.10,2013-03-03 03:46:00,
2013-03-02 23:01:00,38.2,30.0,29.61,WNW,298,0.0,1.0,73,0.00,,,0.00,weatherlink.com 1.10,2013-03-03 04:01:00,
2013-03-02 23:16:00,38.1,30.0,29.61,NNW,345,0.0,4.0,73,0.00,,,0.00,weatherlink.com 1.10,2013-03-03 04:16:00,
2013-03-02 23:31:00,37.8,30.0,29.61,North,354,2.0,3.0,73,0.00,,,0.00,weatherlink.com 1.10,2013-03-03 04:31:00,
2013-03-02 23:46:00,37.7,30.0,29.61,North,354,0.0,1.0,74,0.00,,,0.00,weatherlink.com 1.10,2013-03-03 04:46:00,